Flight Track Log - Related Links

Times and Time Zones

All times are in EDT time to prevent confusion due to time zone crossing. See the SWA3313 flight status page for this flight to view local times or setup timezone preferences in your user account.

Time Position Orientation Groundspeed Altitude Reporting Facility
EDT Latitude Longitude Course Direction KTS MPH feet Rate Location/Type
Thu 05:35:11 PM 42.9500 -71.4333 16° North 160 184 1,200  Level KA90
Thu 05:37:04 PM 43.0314 -71.4006 16° North 241 277 5,600 2,497 Climbing Boston Center
Thu 05:38:04 PM 43.0556 -71.3119 70° East 236 272 8,400 3,050 Climbing Boston Center
Thu 05:39:04 PM 43.0564 -71.1956 89° East 268 308 11,700 3,450 Climbing Boston Center
Thu 05:40:04 PM 43.0694 -71.0644 82° East 326 375 15,300 3,100 Climbing Boston Center
Thu 05:41:04 PM 43.0469 -70.9372 104° East 339 390 17,900 2,050 Climbing Boston Center
Thu 05:42:04 PM 42.9608 -70.8911 159° South 310 357 19,400 2,300 Climbing Boston Center
Thu 05:43:04 PM 42.8697 -70.9358 200° South 281 323 22,500 1,800 Climbing Boston Center
Thu 05:44:04 PM 42.7786 -70.9833 201° Southwest 306 352 23,000 1,200 Climbing Boston Center
Thu 05:45:04 PM 42.7108 -71.0639 221° Southwest 329 379 24,900 1,000 Climbing Boston Center
Thu 05:46:04 PM 42.6664 -71.1694 240° Southwest 329 379 25,000 300 Climbing Boston Center
Thu 05:47:04 PM 42.6175 -71.2778 239° Southwest 344 396 25,500 1,000 Climbing Boston Center
Thu 05:48:04 PM 42.5622 -71.3914 237° Southwest 355 409 27,000 1,250 Climbing Boston Center
Thu 05:49:04 PM 42.5069 -71.5108 238° Southwest 367 422 28,000 500 Climbing Boston Center
Thu 05:50:04 PM 42.4619 -71.6042 237° Southwest 372 428 28,000 500 Level Boston Center
Thu 05:51:04 PM 42.3961 -71.7400 237° Southwest 367 422 29,000 1,950 Climbing Boston Center
Thu 05:52:04 PM 42.3447 -71.8475 237° Southwest 367 422 31,900 2,400 Climbing Boston Center
Thu 05:53:04 PM 42.2931 -71.9544 237° Southwest 354 407 33,800 1,050 Climbing Boston Center
Thu 05:54:04 PM 42.2372 -72.0586 234° Southwest 349 402 34,000 100 Climbing Boston Center
Thu 05:55:04 PM 42.1769 -72.1628 232° Southwest 354 407 34,000  Level Boston Center
Thu 05:56:04 PM 42.1147 -72.2611 230° Southwest 354 407 34,000  Level Boston Center
Thu 05:57:04 PM 42.0522 -72.3619 230° Southwest 354 407 34,000  Level Boston Center
Thu 05:58:04 PM 41.9878 -72.4625 229° Southwest 354 407 34,000  Level Boston Center
Thu 05:59:04 PM 41.9272 -72.5628 231° Southwest 354 407 34,000  Level Boston Center
Thu 06:00:04 PM 41.8603 -72.6714 230° Southwest 354 407 34,000  Level Boston Center
Thu 06:01:04 PM 41.7997 -72.7658 229° Southwest 367 422 34,000  Level Boston Center
Thu 06:02:04 PM 41.7328 -72.8714 230° Southwest 372 428 34,000  Level Boston Center
Thu 06:03:04 PM 41.6697 -72.9736 230° Southwest 372 428 34,000  Level Boston Center
Thu 06:05:29 PM 41.5089 -73.2258 230° Southwest 361 415 34,000  Level New York Center
Thu 06:06:27 PM 41.4442 -73.3286 230° Southwest 366 421 34,000  Level New York Center
Thu 06:07:27 PM 41.3794 -73.4311 230° Southwest 371 427 34,000  Level New York Center
Thu 06:08:30 PM 41.3125 -73.5361 230° Southwest 371 427 34,000  Level New York Center
Thu 06:09:28 PM 41.2475 -73.6383 230° Southwest 376 433 34,000  Level New York Center
Thu 06:10:28 PM 41.1844 -73.7458 232° Southwest 371 427 34,000  Level New York Center
Thu 06:11:29 PM 41.1214 -73.8506 231° Southwest 371 427 34,000  Level New York Center
Thu 06:12:28 PM 41.0603 -73.9550 232° Southwest 365 420 34,000  Level New York Center
Thu 06:13:27 PM 40.9969 -74.0619 232° Southwest 365 420 34,000 -500 Level New York Center
Thu 06:14:28 PM 40.9422 -74.1556 232° Southwest 365 420 33,000 -1,475 Descending New York Center
Thu 06:15:29 PM 40.8814 -74.2483 229° Southwest 358 412 31,000 -2,017 Descending New York Center
Thu 06:16:27 PM 40.8244 -74.3414 231° Southwest 340 391 29,000 -1,525 Descending New York Center
Thu 06:17:27 PM 40.7717 -74.4319 232° Southwest 335 386 28,000 -893 Descending New York Center
Thu 06:18:28 PM 40.7122 -74.5272 231° Southwest 335 386 27,200 -934 Descending New York Center
Thu 06:19:29 PM 40.6572 -74.6200 232° Southwest 335 386 26,100 -1,041 Descending New York Center
Thu 06:20:29 PM 40.6042 -74.7100 232° Southwest 335 386 25,100 -1,169 Descending New York Center
Thu 06:21:27 PM 40.5428 -74.8047 230° Southwest 335 386 23,800 -1,169 Descending New York Center
Thu 06:22:27 PM 40.4792 -74.8911 226° Southwest 340 391 22,800 -992 Descending New York Center
Thu 06:23:28 PM 40.4178 -74.9772 227° Southwest 340 391 21,800 -992 Descending New York Center
Thu 06:24:28 PM 40.3542 -75.0661 227° Southwest 335 386 20,800 -992 Descending New York Center
Thu 06:25:29 PM 40.2925 -75.1547 228° Southwest 335 386 19,800 -1,008 Descending New York Center
Thu 06:26:27 PM 40.2247 -75.2456 226° Southwest 330 380 18,800 -915 Descending New York Center
Thu 06:27:27 PM 40.1608 -75.3339 227° Southwest 335 386 18,000 -397 Descending New York Center
Thu 06:28:28 PM 40.1033 -75.4142 227° Southwest 329 379 18,000  Level New York Center
Thu 06:29:28 PM 40.0417 -75.4969 226° Southwest 329 379 18,000  Level New York Center
Thu 06:30:29 PM 39.9822 -75.5794 227° Southwest 329 379 18,000 -99 Level New York Center
Thu 06:31:29 PM 39.9289 -75.6569 228° Southwest 329 379 17,800 -661 Descending New York Center
Thu 06:32:27 PM 39.8728 -75.7558 234° Southwest 323 372 16,700 -857 Descending New York Center
Thu 06:33:28 PM 39.8292 -75.8447 237° Southwest 323 372 16,100 -1,097 Descending New York Center
Thu 06:35:22 PM 39.7333 -76.0333 237° Southwest 313 360 13,500 -1,414 Descending Potomac TRACON
Thu 06:36:22 PM 39.6833 -76.1167 232° Southwest 305 351 12,000 -1,300 Descending Potomac TRACON
Thu 06:37:22 PM 39.6500 -76.2167 247° West 276 318 10,900 -1,100 Descending Potomac TRACON
Thu 06:38:22 PM 39.5833 -76.2667 210° Southwest 271 312 9,800 -1,043 Descending Potomac TRACON
Thu 06:39:17 PM 39.5333 -76.3333 226° Southwest 264 304 8,900 -960 Descending Potomac TRACON
Thu 06:41:17 PM 39.4833 -76.4833 247° West 270 311 7,000 -1,129 Descending Potomac TRACON
Thu 06:42:23 PM 39.4000 -76.5000 189° South 266 306 5,400 -1,381 Descending Potomac TRACON
Thu 06:43:23 PM 39.3333 -76.5167 191° South 264 304 4,100 -694 Descending Potomac TRACON
Thu 06:44:24 PM 39.2667 -76.5167 180° South 237 273 4,000  Descending Potomac TRACON
Thu 06:45:24 PM 39.2000 -76.5167 180° South 227 261 4,100  Climbing Potomac TRACON
Thu 06:46:24 PM 39.1333 -76.5000 169° South 198 228 4,000 -263 Descending Potomac TRACON
Thu 06:47:18 PM 39.1000 -76.5000 180° South 191 220 3,600 -500 Descending Potomac TRACON
Thu 06:48:24 PM 39.0667 -76.5667 237° Southwest 183 211 3,000 -571 Descending Potomac TRACON
Thu 06:49:24 PM 39.1000 -76.6000 322° Northwest 157 181 2,400 -952 Descending Potomac TRACON
Thu 06:50:30 PM 39.1333 -76.6333 322° Northwest 148 170 1,000 -1,273 Descending Potomac TRACON

Login

Don't have an account? Register now (free) for customized features, flight alerts, and more!